sensor_id;sensor_type;location;lat;lon;timestamp;P1;durP1;ratioP1;P2;durP2;ratioP2
32876;SDS011;19226;51.600;8.034;2023-02-28T00:00:05;3.17;;;2.50;;
32876;SDS011;19226;51.600;8.034;2023-02-28T00:05:39;4.07;;;2.40;;
32876;SDS011;19226;51.600;8.034;2023-02-28T00:08:24;2.70;;;2.50;;
32876;SDS011;19226;51.600;8.034;2023-02-28T00:11:09;4.95;;;2.60;;
32876;SDS011;19226;51.600;8.034;2023-02-28T00:13:55;5.60;;;3.15;;
32876;SDS011;19226;51.600;8.034;2023-02-28T00:16:40;4.43;;;2.20;;
32876;SDS011;19226;51.600;8.034;2023-02-28T00:19:24;2.78;;;2.38;;
32876;SDS011;19226;51.600;8.034;2023-02-28T00:22:09;4.03;;;3.20;;
32876;SDS011;19226;51.600;8.034;2023-02-28T00:24:54;5.07;;;3.15;;
32876;SDS011;19226;51.600;8.034;2023-02-28T00:27:39;5.88;;;3.03;;
32876;SDS011;19226;51.600;8.034;2023-02-28T00:30:26;3.75;;;2.63;;
32876;SDS011;19226;51.600;8.034;2023-02-28T00:33:10;3.70;;;2.28;;
32876;SDS011;19226;51.600;8.034;2023-02-28T00:36:05;6.25;;;2.67;;
32876;SDS011;19226;51.600;8.034;2023-02-28T00:38:56;2.85;;;2.65;;
32876;SDS011;19226;51.600;8.034;2023-02-28T00:41:40;6.35;;;2.85;;
32876;SDS011;19226;51.600;8.034;2023-02-28T00:44:25;3.05;;;2.53;;
32876;SDS011;19226;51.600;8.034;2023-02-28T00:47:10;5.15;;;3.03;;
32876;SDS011;19226;51.600;8.034;2023-02-28T00:49:55;4.43;;;3.47;;
32876;SDS011;19226;51.600;8.034;2023-02-28T00:52:39;3.08;;;2.38;;
32876;SDS011;19226;51.600;8.034;2023-02-28T00:55:24;7.15;;;2.80;;
32876;SDS011;19226;51.600;8.034;2023-02-28T00:58:08;7.13;;;3.55;;
32876;SDS011;19226;51.600;8.034;2023-02-28T01:00:53;8.35;;;4.10;;
32876;SDS011;19226;51.600;8.034;2023-02-28T01:03:38;8.48;;;3.30;;
32876;SDS011;19226;51.600;8.034;2023-02-28T01:06:23;6.93;;;3.15;;
32876;SDS011;19226;51.600;8.034;2023-02-28T01:09:08;3.20;;;2.67;;
32876;SDS011;19226;51.600;8.034;2023-02-28T01:11:53;4.03;;;3.38;;
32876;SDS011;19226;51.600;8.034;2023-02-28T01:14:37;4.80;;;3.10;;
32876;SDS011;19226;51.600;8.034;2023-02-28T01:17:22;5.50;;;3.28;;
32876;SDS011;19226;51.600;8.034;2023-02-28T01:20:10;5.15;;;3.03;;
32876;SDS011;19226;51.600;8.034;2023-02-28T01:22:55;6.82;;;3.50;;
32876;SDS011;19226;51.600;8.034;2023-02-28T01:25:39;10.35;;;3.17;;
32876;SDS011;19226;51.600;8.034;2023-02-28T01:28:24;4.15;;;2.85;;
32876;SDS011;19226;51.600;8.034;2023-02-28T01:31:09;5.93;;;2.80;;
32876;SDS011;19226;51.600;8.034;2023-02-28T01:33:55;4.22;;;2.75;;
32876;SDS011;19226;51.600;8.034;2023-02-28T01:36:40;3.60;;;2.70;;
32876;SDS011;19226;51.600;8.034;2023-02-28T01:39:25;3.88;;;2.47;;
32876;SDS011;19226;51.600;8.034;2023-02-28T01:42:12;3.83;;;2.80;;
32876;SDS011;19226;51.600;8.034;2023-02-28T01:44:58;4.47;;;3.13;;
32876;SDS011;19226;51.600;8.034;2023-02-28T01:47:43;6.22;;;2.88;;
32876;SDS011;19226;51.600;8.034;2023-02-28T01:50:31;3.40;;;2.80;;
32876;SDS011;19226;51.600;8.034;2023-02-28T01:53:24;3.55;;;2.58;;
32876;SDS011;19226;51.600;8.034;2023-02-28T01:56:17;3.42;;;2.72;;
32876;SDS011;19226;51.600;8.034;2023-02-28T01:59:09;3.38;;;2.95;;
32876;SDS011;19226;51.600;8.034;2023-02-28T02:01:58;4.03;;;2.40;;
32876;SDS011;19226;51.600;8.034;2023-02-28T02:04:46;4.95;;;3.10;;
32876;SDS011;19226;51.600;8.034;2023-02-28T02:07:39;2.78;;;2.50;;
32876;SDS011;19226;51.600;8.034;2023-02-28T02:10:34;3.80;;;2.80;;
32876;SDS011;19226;51.600;8.034;2023-02-28T02:13:47;6.40;;;3.00;;
32876;SDS011;19226;51.600;8.034;2023-02-28T02:17:01;3.92;;;2.63;;
32876;SDS011;19226;51.600;8.034;2023-02-28T02:20:13;3.72;;;2.83;;
32876;SDS011;19226;51.600;8.034;2023-02-28T02:23:27;5.05;;;3.55;;
32876;SDS011;19226;51.600;8.034;2023-02-28T02:36:07;5.97;;;3.70;;
32876;SDS011;19226;51.600;8.034;2023-02-28T02:42:04;4.60;;;2.67;;
32876;SDS011;19226;51.600;8.034;2023-02-28T02:45:17;3.60;;;2.30;;
32876;SDS011;19226;51.600;8.034;2023-02-28T02:48:10;3.80;;;3.00;;
32876;SDS011;19226;51.600;8.034;2023-02-28T02:50:59;8.57;;;2.38;;
32876;SDS011;19226;51.600;8.034;2023-02-28T02:54:31;5.13;;;2.42;;
32876;SDS011;19226;51.600;8.034;2023-02-28T02:57:01;3.17;;;2.72;;
32876;SDS011;19226;51.600;8.034;2023-02-28T02:59:53;2.90;;;2.63;;
32876;SDS011;19226;51.600;8.034;2023-02-28T03:02:40;2.90;;;2.42;;
32876;SDS011;19226;51.600;8.034;2023-02-28T03:05:30;2.65;;;2.45;;
32876;SDS011;19226;51.600;8.034;2023-02-28T03:08:19;4.22;;;2.67;;
32876;SDS011;19226;51.600;8.034;2023-02-28T03:11:05;3.42;;;2.60;;
32876;SDS011;19226;51.600;8.034;2023-02-28T03:30:17;4.03;;;2.63;;
32876;SDS011;19226;51.600;8.034;2023-02-28T03:36:12;2.88;;;2.47;;
32876;SDS011;19226;51.600;8.034;2023-02-28T03:39:06;2.88;;;2.67;;
32876;SDS011;19226;51.600;8.034;2023-02-28T03:41:58;3.25;;;2.60;;
32876;SDS011;19226;51.600;8.034;2023-02-28T03:50:39;3.95;;;3.10;;
32876;SDS011;19226;51.600;8.034;2023-02-28T03:53:27;5.60;;;3.00;;
32876;SDS011;19226;51.600;8.034;2023-02-28T03:56:25;7.47;;;2.83;;
32876;SDS011;19226;51.600;8.034;2023-02-28T03:59:34;3.17;;;2.90;;
32876;SDS011;19226;51.600;8.034;2023-02-28T04:02:26;2.65;;;2.45;;
32876;SDS011;19226;51.600;8.034;2023-02-28T04:05:11;3.75;;;2.90;;
32876;SDS011;19226;51.600;8.034;2023-02-28T04:08:14;6.03;;;3.05;;
32876;SDS011;19226;51.600;8.034;2023-02-28T04:11:06;7.13;;;2.80;;
32876;SDS011;19226;51.600;8.034;2023-02-28T04:14:01;4.82;;;2.97;;
32876;SDS011;19226;51.600;8.034;2023-02-28T04:16:46;3.38;;;2.95;;
32876;SDS011;19226;51.600;8.034;2023-02-28T04:19:31;5.30;;;2.78;;
32876;SDS011;19226;51.600;8.034;2023-02-28T04:22:15;5.05;;;2.95;;
32876;SDS011;19226;51.600;8.034;2023-02-28T04:25:01;3.03;;;2.72;;
32876;SDS011;19226;51.600;8.034;2023-02-28T04:27:46;5.95;;;3.60;;
32876;SDS011;19226;51.600;8.034;2023-02-28T04:30:31;4.70;;;3.53;;
32876;SDS011;19226;51.600;8.034;2023-02-28T04:33:16;4.75;;;3.10;;
32876;SDS011;19226;51.600;8.034;2023-02-28T04:36:05;5.28;;;3.13;;
32876;SDS011;19226;51.600;8.034;2023-02-28T04:38:56;8.27;;;3.05;;
32876;SDS011;19226;51.600;8.034;2023-02-28T04:41:42;4.32;;;2.80;;
32876;SDS011;19226;51.600;8.034;2023-02-28T04:44:26;6.00;;;2.85;;
32876;SDS011;19226;51.600;8.034;2023-02-28T04:47:11;4.25;;;3.30;;
32876;SDS011;19226;51.600;8.034;2023-02-28T04:49:55;6.22;;;3.13;;
32876;SDS011;19226;51.600;8.034;2023-02-28T04:52:40;3.88;;;2.83;;
32876;SDS011;19226;51.600;8.034;2023-02-28T04:55:25;5.03;;;3.40;;
32876;SDS011;19226;51.600;8.034;2023-02-28T04:58:09;6.60;;;2.88;;
32876;SDS011;19226;51.600;8.034;2023-02-28T05:00:54;4.22;;;3.17;;
32876;SDS011;19226;51.600;8.034;2023-02-28T05:03:46;3.40;;;2.97;;
32876;SDS011;19226;51.600;8.034;2023-02-28T05:06:32;8.75;;;3.70;;
32876;SDS011;19226;51.600;8.034;2023-02-28T05:09:17;6.93;;;3.40;;
32876;SDS011;19226;51.600;8.034;2023-02-28T05:12:02;3.88;;;3.00;;
32876;SDS011;19226;51.600;8.034;2023-02-28T05:14:47;4.82;;;3.22;;
32876;SDS011;19226;51.600;8.034;2023-02-28T05:17:32;3.08;;;2.78;;
32876;SDS011;19226;51.600;8.034;2023-02-28T05:20:16;4.30;;;3.25;;
32876;SDS011;19226;51.600;8.034;2023-02-28T05:23:01;3.97;;;2.55;;
32876;SDS011;19226;51.600;8.034;2023-02-28T05:25:47;3.55;;;3.25;;
32876;SDS011;19226;51.600;8.034;2023-02-28T05:28:31;4.53;;;3.15;;
32876;SDS011;19226;51.600;8.034;2023-02-28T05:31:16;3.72;;;3.20;;
32876;SDS011;19226;51.600;8.034;2023-02-28T05:34:00;3.70;;;3.40;;
32876;SDS011;19226;51.600;8.034;2023-02-28T05:36:48;4.82;;;3.50;;
32876;SDS011;19226;51.600;8.034;2023-02-28T05:39:32;3.30;;;3.00;;
32876;SDS011;19226;51.600;8.034;2023-02-28T05:42:17;4.80;;;3.40;;
32876;SDS011;19226;51.600;8.034;2023-02-28T05:45:02;9.93;;;4.43;;
32876;SDS011;19226;51.600;8.034;2023-02-28T05:47:47;8.25;;;4.60;;
32876;SDS011;19226;51.600;8.034;2023-02-28T05:50:32;13.48;;;5.28;;
32876;SDS011;19226;51.600;8.034;2023-02-28T05:53:16;8.88;;;5.20;;
32876;SDS011;19226;51.600;8.034;2023-02-28T05:56:01;9.38;;;4.57;;
32876;SDS011;19226;51.600;8.034;2023-02-28T05:58:45;5.60;;;3.55;;
32876;SDS011;19226;51.600;8.034;2023-02-28T06:01:37;4.80;;;3.45;;
32876;SDS011;19226;51.600;8.034;2023-02-28T06:04:23;4.57;;;3.47;;
32876;SDS011;19226;51.600;8.034;2023-02-28T06:07:08;4.30;;;3.88;;
32876;SDS011;19226;51.600;8.034;2023-02-28T06:09:53;5.72;;;4.18;;
32876;SDS011;19226;51.600;8.034;2023-02-28T06:12:37;5.05;;;3.88;;
32876;SDS011;19226;51.600;8.034;2023-02-28T06:15:22;4.50;;;3.47;;
32876;SDS011;19226;51.600;8.034;2023-02-28T06:18:06;7.82;;;4.15;;
32876;SDS011;19226;51.600;8.034;2023-02-28T06:20:54;5.70;;;3.95;;
32876;SDS011;19226;51.600;8.034;2023-02-28T06:23:39;8.47;;;5.87;;
32876;SDS011;19226;51.600;8.034;2023-02-28T06:26:25;12.43;;;5.78;;
32876;SDS011;19226;51.600;8.034;2023-02-28T06:29:10;4.45;;;3.92;;
32876;SDS011;19226;51.600;8.034;2023-02-28T06:31:55;6.25;;;4.30;;
32876;SDS011;19226;51.600;8.034;2023-02-28T06:34:39;7.75;;;4.97;;
32876;SDS011;19226;51.600;8.034;2023-02-28T06:37:24;15.20;;;5.78;;
32876;SDS011;19226;51.600;8.034;2023-02-28T06:40:11;6.28;;;5.28;;
32876;SDS011;19226;51.600;8.034;2023-02-28T06:42:57;9.15;;;5.53;;
32876;SDS011;19226;51.600;8.034;2023-02-28T06:45:42;8.15;;;4.75;;
32876;SDS011;19226;51.600;8.034;2023-02-28T06:48:27;5.30;;;4.15;;
32876;SDS011;19226;51.600;8.034;2023-02-28T06:51:13;7.13;;;4.47;;
32876;SDS011;19226;51.600;8.034;2023-02-28T06:53:59;5.72;;;4.15;;
32876;SDS011;19226;51.600;8.034;2023-02-28T06:56:44;10.48;;;4.38;;
32876;SDS011;19226;51.600;8.034;2023-02-28T06:59:28;6.15;;;3.97;;
32876;SDS011;19226;51.600;8.034;2023-02-28T07:02:13;5.47;;;4.00;;
32876;SDS011;19226;51.600;8.034;2023-02-28T07:04:57;6.10;;;3.83;;
32876;SDS011;19226;51.600;8.034;2023-02-28T07:07:42;8.25;;;3.97;;
32876;SDS011;19226;51.600;8.034;2023-02-28T07:10:29;4.72;;;3.85;;
32876;SDS011;19226;51.600;8.034;2023-02-28T07:13:13;3.80;;;3.50;;
32876;SDS011;19226;51.600;8.034;2023-02-28T07:15:59;4.88;;;3.97;;
32876;SDS011;19226;51.600;8.034;2023-02-28T07:18:44;3.75;;;3.45;;
32876;SDS011;19226;51.600;8.034;2023-02-28T07:21:29;9.43;;;4.57;;
32876;SDS011;19226;51.600;8.034;2023-02-28T07:24:13;5.30;;;3.67;;
32876;SDS011;19226;51.600;8.034;2023-02-28T07:26:59;7.97;;;4.15;;
32876;SDS011;19226;51.600;8.034;2023-02-28T07:29:45;12.35;;;6.18;;
32876;SDS011;19226;51.600;8.034;2023-02-28T07:32:30;10.32;;;5.60;;
32876;SDS011;19226;51.600;8.034;2023-02-28T07:35:15;6.88;;;5.25;;
32876;SDS011;19226;51.600;8.034;2023-02-28T07:38:00;7.15;;;4.80;;
32876;SDS011;19226;51.600;8.034;2023-02-28T07:40:45;8.32;;;5.03;;
32876;SDS011;19226;51.600;8.034;2023-02-28T07:43:30;6.30;;;4.07;;
32876;SDS011;19226;51.600;8.034;2023-02-28T07:46:16;5.30;;;3.88;;
32876;SDS011;19226;51.600;8.034;2023-02-28T07:49:00;4.75;;;3.75;;
32876;SDS011;19226;51.600;8.034;2023-02-28T07:51:47;6.68;;;4.35;;
32876;SDS011;19226;51.600;8.034;2023-02-28T07:54:32;6.55;;;3.67;;
32876;SDS011;19226;51.600;8.034;2023-02-28T07:57:17;4.30;;;3.88;;
32876;SDS011;19226;51.600;8.034;2023-02-28T08:00:03;5.95;;;3.33;;
32876;SDS011;19226;51.600;8.034;2023-02-28T08:02:55;8.43;;;3.35;;
32876;SDS011;19226;51.600;8.034;2023-02-28T08:05:40;6.55;;;3.83;;
32876;SDS011;19226;51.600;8.034;2023-02-28T08:08:24;4.88;;;3.50;;
32876;SDS011;19226;51.600;8.034;2023-02-28T08:11:12;3.97;;;3.40;;
32876;SDS011;19226;51.600;8.034;2023-02-28T08:13:58;4.18;;;3.75;;
32876;SDS011;19226;51.600;8.034;2023-02-28T08:16:42;4.10;;;3.60;;
32876;SDS011;19226;51.600;8.034;2023-02-28T08:19:27;5.95;;;3.72;;
32876;SDS011;19226;51.600;8.034;2023-02-28T08:22:12;6.38;;;3.90;;
32876;SDS011;19226;51.600;8.034;2023-02-28T08:24:57;5.32;;;3.67;;
32876;SDS011;19226;51.600;8.034;2023-02-28T08:27:42;6.90;;;3.15;;
32876;SDS011;19226;51.600;8.034;2023-02-28T08:30:26;3.38;;;3.08;;
32876;SDS011;19226;51.600;8.034;2023-02-28T08:33:11;3.22;;;2.92;;
32876;SDS011;19226;51.600;8.034;2023-02-28T08:35:56;7.03;;;3.42;;
32876;SDS011;19226;51.600;8.034;2023-02-28T08:38:43;3.38;;;3.15;;
32876;SDS011;19226;51.600;8.034;2023-02-28T08:41:28;6.60;;;3.72;;
32876;SDS011;19226;51.600;8.034;2023-02-28T08:44:13;5.03;;;3.05;;
32876;SDS011;19226;51.600;8.034;2023-02-28T08:46:57;5.22;;;2.90;;
32876;SDS011;19226;51.600;8.034;2023-02-28T08:49:42;5.90;;;3.30;;
32876;SDS011;19226;51.600;8.034;2023-02-28T08:52:26;4.07;;;3.35;;
32876;SDS011;19226;51.600;8.034;2023-02-28T08:55:11;3.00;;;2.60;;
32876;SDS011;19226;51.600;8.034;2023-02-28T08:57:55;3.63;;;2.85;;
32876;SDS011;19226;51.600;8.034;2023-02-28T09:00:41;3.17;;;2.88;;
32876;SDS011;19226;51.600;8.034;2023-02-28T09:03:26;6.55;;;2.53;;
32876;SDS011;19226;51.600;8.034;2023-02-28T09:06:14;3.85;;;2.72;;
32876;SDS011;19226;51.600;8.034;2023-02-28T09:08:59;7.20;;;2.67;;
32876;SDS011;19226;51.600;8.034;2023-02-28T09:11:44;5.45;;;2.85;;
32876;SDS011;19226;51.600;8.034;2023-02-28T09:14:29;2.40;;;2.20;;
32876;SDS011;19226;51.600;8.034;2023-02-28T09:17:14;2.75;;;2.30;;
32876;SDS011;19226;51.600;8.034;2023-02-28T09:19:59;4.25;;;2.65;;
32876;SDS011;19226;51.600;8.034;2023-02-28T09:22:43;3.25;;;2.38;;
32876;SDS011;19226;51.600;8.034;2023-02-28T09:25:28;5.53;;;2.70;;
32876;SDS011;19226;51.600;8.034;2023-02-28T09:28:13;7.45;;;2.67;;
32876;SDS011;19226;51.600;8.034;2023-02-28T09:31:00;2.63;;;2.42;;
32876;SDS011;19226;51.600;8.034;2023-02-28T09:33:45;6.38;;;2.75;;
32876;SDS011;19226;51.600;8.034;2023-02-28T09:36:29;5.95;;;2.70;;
32876;SDS011;19226;51.600;8.034;2023-02-28T09:39:15;5.10;;;2.13;;
32876;SDS011;19226;51.600;8.034;2023-02-28T09:42:00;7.38;;;2.60;;
32876;SDS011;19226;51.600;8.034;2023-02-28T09:44:47;4.07;;;2.45;;
32876;SDS011;19226;51.600;8.034;2023-02-28T09:47:43;6.53;;;2.40;;
32876;SDS011;19226;51.600;8.034;2023-02-28T09:50:36;2.60;;;2.40;;
32876;SDS011;19226;51.600;8.034;2023-02-28T09:53:26;5.38;;;2.55;;
32876;SDS011;19226;51.600;8.034;2023-02-28T09:56:20;5.10;;;2.42;;
32876;SDS011;19226;51.600;8.034;2023-02-28T10:02:19;6.00;;;2.13;;
32876;SDS011;19226;51.600;8.034;2023-02-28T10:05:14;3.35;;;2.05;;
32876;SDS011;19226;51.600;8.034;2023-02-28T10:08:06;2.42;;;2.20;;
32876;SDS011;19226;51.600;8.034;2023-02-28T10:11:03;2.80;;;2.30;;
32876;SDS011;19226;51.600;8.034;2023-02-28T10:13:56;4.65;;;2.40;;
32876;SDS011;19226;51.600;8.034;2023-02-28T10:22:58;3.38;;;1.90;;
32876;SDS011;19226;51.600;8.034;2023-02-28T10:25:55;5.90;;;2.38;;
32876;SDS011;19226;51.600;8.034;2023-02-28T10:28:43;2.20;;;1.92;;
32876;SDS011;19226;51.600;8.034;2023-02-28T10:31:29;3.08;;;2.33;;
32876;SDS011;19226;51.600;8.034;2023-02-28T10:34:13;2.38;;;1.88;;
32876;SDS011;19226;51.600;8.034;2023-02-28T10:36:58;2.20;;;1.90;;
32876;SDS011;19226;51.600;8.034;2023-02-28T10:39:53;2.22;;;2.08;;
32876;SDS011;19226;51.600;8.034;2023-02-28T10:42:38;1.98;;;1.70;;
32876;SDS011;19226;51.600;8.034;2023-02-28T10:45:23;4.78;;;1.88;;
32876;SDS011;19226;51.600;8.034;2023-02-28T10:51:02;2.70;;;2.50;;
32876;SDS011;19226;51.600;8.034;2023-02-28T10:53:51;5.07;;;2.20;;
32876;SDS011;19226;51.600;8.034;2023-02-28T10:56:36;2.42;;;2.22;;
32876;SDS011;19226;51.600;8.034;2023-02-28T10:59:28;4.90;;;2.47;;
32876;SDS011;19226;51.600;8.034;2023-02-28T11:02:31;6.43;;;2.10;;
32876;SDS011;19226;51.600;8.034;2023-02-28T11:05:46;2.90;;;2.22;;
32876;SDS011;19226;51.600;8.034;2023-02-28T11:08:29;4.15;;;2.58;;
32876;SDS011;19226;51.600;8.034;2023-02-28T11:11:14;2.58;;;2.38;;
32876;SDS011;19226;51.600;8.034;2023-02-28T11:14:04;4.18;;;2.53;;
32876;SDS011;19226;51.600;8.034;2023-02-28T11:17:00;2.97;;;2.25;;
32876;SDS011;19226;51.600;8.034;2023-02-28T11:19:58;4.50;;;2.60;;
32876;SDS011;19226;51.600;8.034;2023-02-28T11:23:03;3.55;;;2.50;;
32876;SDS011;19226;51.600;8.034;2023-02-28T11:25:51;2.65;;;2.28;;
32876;SDS011;19226;51.600;8.034;2023-02-28T11:28:39;5.13;;;2.50;;
32876;SDS011;19226;51.600;8.034;2023-02-28T11:31:25;4.45;;;2.45;;
32876;SDS011;19226;51.600;8.034;2023-02-28T11:34:22;5.07;;;2.83;;
32876;SDS011;19226;51.600;8.034;2023-02-28T11:37:11;3.25;;;2.70;;
32876;SDS011;19226;51.600;8.034;2023-02-28T11:40:00;5.07;;;2.58;;
32876;SDS011;19226;51.600;8.034;2023-02-28T11:55:11;3.70;;;2.40;;
32876;SDS011;19226;51.600;8.034;2023-02-28T12:06:51;3.90;;;2.53;;
32876;SDS011;19226;51.600;8.034;2023-02-28T12:09:53;6.68;;;2.95;;
32876;SDS011;19226;51.600;8.034;2023-02-28T12:16:15;3.55;;;2.55;;
32876;SDS011;19226;51.600;8.034;2023-02-28T12:19:13;2.65;;;2.45;;
32876;SDS011;19226;51.600;8.034;2023-02-28T12:28:00;2.75;;;2.30;;
32876;SDS011;19226;51.600;8.034;2023-02-28T12:30:54;4.90;;;2.45;;
32876;SDS011;19226;51.600;8.034;2023-02-28T12:33:49;4.00;;;2.65;;
32876;SDS011;19226;51.600;8.034;2023-02-28T12:36:36;3.30;;;2.63;;
32876;SDS011;19226;51.600;8.034;2023-02-28T12:42:22;3.08;;;2.60;;
32876;SDS011;19226;51.600;8.034;2023-02-28T12:45:15;2.78;;;2.30;;
32876;SDS011;19226;51.600;8.034;2023-02-28T12:48:23;4.47;;;2.47;;
32876;SDS011;19226;51.600;8.034;2023-02-28T12:51:15;5.43;;;3.38;;
32876;SDS011;19226;51.600;8.034;2023-02-28T13:00:18;5.82;;;2.80;;
32876;SDS011;19226;51.600;8.034;2023-02-28T13:06:24;4.38;;;2.80;;
32876;SDS011;19226;51.600;8.034;2023-02-28T13:09:30;4.82;;;3.05;;
32876;SDS011;19226;51.600;8.034;2023-02-28T13:12:15;4.07;;;2.83;;
32876;SDS011;19226;51.600;8.034;2023-02-28T13:15:07;4.10;;;3.60;;
32876;SDS011;19226;51.600;8.034;2023-02-28T13:18:05;5.35;;;2.65;;
32876;SDS011;19226;51.600;8.034;2023-02-28T13:21:22;4.35;;;2.40;;
32876;SDS011;19226;51.600;8.034;2023-02-28T13:24:11;6.95;;;2.67;;
32876;SDS011;19226;51.600;8.034;2023-02-28T13:30:00;5.90;;;2.47;;
32876;SDS011;19226;51.600;8.034;2023-02-28T13:32:45;3.28;;;2.38;;
32876;SDS011;19226;51.600;8.034;2023-02-28T13:35:35;2.78;;;2.58;;
32876;SDS011;19226;51.600;8.034;2023-02-28T13:38:23;4.10;;;3.03;;
32876;SDS011;19226;51.600;8.034;2023-02-28T13:49:42;5.03;;;2.83;;
32876;SDS011;19226;51.600;8.034;2023-02-28T13:52:26;5.03;;;2.85;;
32876;SDS011;19226;51.600;8.034;2023-02-28T13:55:28;3.05;;;2.40;;
32876;SDS011;19226;51.600;8.034;2023-02-28T14:01:32;2.75;;;2.47;;
32876;SDS011;19226;51.600;8.034;2023-02-28T14:04:41;4.22;;;2.85;;
32876;SDS011;19226;51.600;8.034;2023-02-28T14:07:38;3.22;;;2.80;;
32876;SDS011;19226;51.600;8.034;2023-02-28T14:16:44;3.35;;;2.50;;
32876;SDS011;19226;51.600;8.034;2023-02-28T14:19:30;4.03;;;3.10;;
32876;SDS011;19226;51.600;8.034;2023-02-28T14:28:19;2.70;;;2.50;;
32876;SDS011;19226;51.600;8.034;2023-02-28T14:31:15;4.72;;;2.55;;
32876;SDS011;19226;51.600;8.034;2023-02-28T14:37:27;7.47;;;2.80;;
32876;SDS011;19226;51.600;8.034;2023-02-28T14:40:16;10.15;;;2.30;;
32876;SDS011;19226;51.600;8.034;2023-02-28T14:43:05;6.93;;;2.15;;
32876;SDS011;19226;51.600;8.034;2023-02-28T14:46:02;3.72;;;2.20;;
32876;SDS011;19226;51.600;8.034;2023-02-28T14:48:50;4.00;;;2.75;;
32876;SDS011;19226;51.600;8.034;2023-02-28T14:51:34;3.92;;;2.60;;
32876;SDS011;19226;51.600;8.034;2023-02-28T14:54:20;4.05;;;2.42;;
32876;SDS011;19226;51.600;8.034;2023-02-28T14:57:24;2.72;;;1.83;;
32876;SDS011;19226;51.600;8.034;2023-02-28T15:00:28;2.05;;;1.95;;
32876;SDS011;19226;51.600;8.034;2023-02-28T15:03:22;4.22;;;2.67;;
32876;SDS011;19226;51.600;8.034;2023-02-28T15:06:18;4.68;;;2.28;;
32876;SDS011;19226;51.600;8.034;2023-02-28T15:09:14;3.00;;;2.55;;
32876;SDS011;19226;51.600;8.034;2023-02-28T15:12:00;5.25;;;2.30;;
32876;SDS011;19226;51.600;8.034;2023-02-28T15:14:46;3.20;;;2.45;;
32876;SDS011;19226;51.600;8.034;2023-02-28T15:17:30;3.47;;;2.40;;
32876;SDS011;19226;51.600;8.034;2023-02-28T15:20:15;9.00;;;2.53;;
32876;SDS011;19226;51.600;8.034;2023-02-28T15:23:01;2.58;;;2.38;;
32876;SDS011;19226;51.600;8.034;2023-02-28T15:25:46;3.65;;;2.63;;
32876;SDS011;19226;51.600;8.034;2023-02-28T15:28:31;3.63;;;2.30;;
32876;SDS011;19226;51.600;8.034;2023-02-28T15:31:21;5.85;;;2.50;;
32876;SDS011;19226;51.600;8.034;2023-02-28T15:34:20;4.22;;;2.40;;
32876;SDS011;19226;51.600;8.034;2023-02-28T15:40:38;8.38;;;4.70;;
32876;SDS011;19226;51.600;8.034;2023-02-28T15:43:25;5.55;;;3.10;;
32876;SDS011;19226;51.600;8.034;2023-02-28T15:46:12;5.75;;;3.35;;
32876;SDS011;19226;51.600;8.034;2023-02-28T15:48:57;3.30;;;2.70;;
32876;SDS011;19226;51.600;8.034;2023-02-28T15:51:42;4.30;;;2.50;;
32876;SDS011;19226;51.600;8.034;2023-02-28T15:54:32;4.13;;;2.97;;
32876;SDS011;19226;51.600;8.034;2023-02-28T15:57:25;4.40;;;3.20;;
32876;SDS011;19226;51.600;8.034;2023-02-28T16:00:13;6.40;;;3.17;;
32876;SDS011;19226;51.600;8.034;2023-02-28T16:02:59;5.07;;;2.95;;
32876;SDS011;19226;51.600;8.034;2023-02-28T16:05:44;4.30;;;2.95;;
32876;SDS011;19226;51.600;8.034;2023-02-28T16:08:28;5.22;;;2.97;;
32876;SDS011;19226;51.600;8.034;2023-02-28T16:11:13;4.10;;;2.90;;
32876;SDS011;19226;51.600;8.034;2023-02-28T16:13:57;4.72;;;2.60;;
32876;SDS011;19226;51.600;8.034;2023-02-28T16:16:43;3.10;;;2.80;;
32876;SDS011;19226;51.600;8.034;2023-02-28T16:19:29;7.22;;;3.03;;
32876;SDS011;19226;51.600;8.034;2023-02-28T16:22:14;5.82;;;4.43;;
32876;SDS011;19226;51.600;8.034;2023-02-28T16:24:59;7.90;;;4.57;;
32876;SDS011;19226;51.600;8.034;2023-02-28T16:27:44;8.30;;;4.22;;
32876;SDS011;19226;51.600;8.034;2023-02-28T16:30:32;4.90;;;3.47;;
32876;SDS011;19226;51.600;8.034;2023-02-28T16:33:17;5.30;;;3.83;;
32876;SDS011;19226;51.600;8.034;2023-02-28T16:36:02;5.00;;;3.00;;
32876;SDS011;19226;51.600;8.034;2023-02-28T16:38:47;6.10;;;3.85;;
32876;SDS011;19226;51.600;8.034;2023-02-28T16:41:32;2.58;;;2.38;;
32876;SDS011;19226;51.600;8.034;2023-02-28T16:44:28;4.07;;;2.70;;
32876;SDS011;19226;51.600;8.034;2023-02-28T16:47:15;5.80;;;3.20;;
32876;SDS011;19226;51.600;8.034;2023-02-28T16:49:59;3.70;;;2.60;;
32876;SDS011;19226;51.600;8.034;2023-02-28T16:52:44;10.27;;;4.07;;
32876;SDS011;19226;51.600;8.034;2023-02-28T16:55:29;3.35;;;2.92;;
32876;SDS011;19226;51.600;8.034;2023-02-28T16:58:15;5.50;;;3.10;;
32876;SDS011;19226;51.600;8.034;2023-02-28T17:01:01;5.80;;;4.07;;
32876;SDS011;19226;51.600;8.034;2023-02-28T17:03:46;8.63;;;4.90;;
32876;SDS011;19226;51.600;8.034;2023-02-28T17:06:31;4.55;;;3.58;;
32876;SDS011;19226;51.600;8.034;2023-02-28T17:09:17;3.35;;;3.13;;
32876;SDS011;19226;51.600;8.034;2023-02-28T17:12:03;4.25;;;2.90;;
32876;SDS011;19226;51.600;8.034;2023-02-28T17:14:48;5.45;;;2.95;;
32876;SDS011;19226;51.600;8.034;2023-02-28T17:17:32;3.60;;;3.10;;
32876;SDS011;19226;51.600;8.034;2023-02-28T17:20:18;6.25;;;3.50;;
32876;SDS011;19226;51.600;8.034;2023-02-28T17:23:06;15.00;;;4.82;;
32876;SDS011;19226;51.600;8.034;2023-02-28T17:25:50;7.35;;;5.60;;
32876;SDS011;19226;51.600;8.034;2023-02-28T17:28:38;8.35;;;4.93;;
32876;SDS011;19226;51.600;8.034;2023-02-28T17:31:23;5.68;;;4.05;;
32876;SDS011;19226;51.600;8.034;2023-02-28T17:34:09;8.27;;;5.68;;
32876;SDS011;19226;51.600;8.034;2023-02-28T17:36:54;12.38;;;7.20;;
32876;SDS011;19226;51.600;8.034;2023-02-28T17:39:39;14.45;;;5.80;;
32876;SDS011;19226;51.600;8.034;2023-02-28T17:42:23;6.65;;;4.20;;
32876;SDS011;19226;51.600;8.034;2023-02-28T17:45:08;10.63;;;4.45;;
32876;SDS011;19226;51.600;8.034;2023-02-28T17:47:53;5.30;;;4.35;;
32876;SDS011;19226;51.600;8.034;2023-02-28T17:50:37;4.68;;;3.78;;
32876;SDS011;19226;51.600;8.034;2023-02-28T17:53:22;3.95;;;3.47;;
32876;SDS011;19226;51.600;8.034;2023-02-28T17:56:18;4.60;;;3.70;;
32876;SDS011;19226;51.600;8.034;2023-02-28T17:59:04;7.40;;;3.13;;
32876;SDS011;19226;51.600;8.034;2023-02-28T18:01:49;3.50;;;3.20;;
32876;SDS011;19226;51.600;8.034;2023-02-28T18:04:33;6.65;;;3.92;;
32876;SDS011;19226;51.600;8.034;2023-02-28T18:07:18;7.82;;;4.05;;
32876;SDS011;19226;51.600;8.034;2023-02-28T18:10:05;3.92;;;3.50;;
32876;SDS011;19226;51.600;8.034;2023-02-28T18:12:54;7.78;;;4.07;;
32876;SDS011;19226;51.600;8.034;2023-02-28T18:15:39;4.45;;;3.42;;
32876;SDS011;19226;51.600;8.034;2023-02-28T18:18:24;7.63;;;4.30;;
32876;SDS011;19226;51.600;8.034;2023-02-28T18:21:09;8.20;;;3.95;;
32876;SDS011;19226;51.600;8.034;2023-02-28T18:23:55;5.32;;;3.80;;
32876;SDS011;19226;51.600;8.034;2023-02-28T18:26:41;7.88;;;3.67;;
32876;SDS011;19226;51.600;8.034;2023-02-28T18:29:26;8.93;;;3.60;;
32876;SDS011;19226;51.600;8.034;2023-02-28T18:32:12;7.00;;;4.13;;
32876;SDS011;19226;51.600;8.034;2023-02-28T18:34:56;8.85;;;5.85;;
32876;SDS011;19226;51.600;8.034;2023-02-28T18:37:41;8.07;;;4.57;;
32876;SDS011;19226;51.600;8.034;2023-02-28T18:40:25;11.80;;;4.20;;
32876;SDS011;19226;51.600;8.034;2023-02-28T18:43:10;9.80;;;4.55;;
32876;SDS011;19226;51.600;8.034;2023-02-28T18:45:55;8.63;;;5.10;;
32876;SDS011;19226;51.600;8.034;2023-02-28T18:48:39;8.50;;;5.40;;
32876;SDS011;19226;51.600;8.034;2023-02-28T18:51:24;9.90;;;5.78;;
32876;SDS011;19226;51.600;8.034;2023-02-28T18:54:10;8.50;;;5.13;;
32876;SDS011;19226;51.600;8.034;2023-02-28T18:56:58;8.02;;;5.45;;
32876;SDS011;19226;51.600;8.034;2023-02-28T18:59:42;4.75;;;4.30;;
32876;SDS011;19226;51.600;8.034;2023-02-28T19:02:27;4.65;;;4.18;;